Time;durP1;ratioP1;P1;durP2;ratioP2;P2;SDS_P1;SDS_P2;PMS_P1;PMS_P2;Temp;Humidity;BMP_temperature;BMP_pressure;BME280_temperature;BME280_humidity;BME280_pressure;Samples;Min_cycle;Max_cycle;Signal;HPM_P1;HPM_P2
2022/08/18 00:00:56;;;;;;;21.52;8.02;;;24.10;99.90;;;;;;4987950;28;20057;-50
2022/08/18 00:04:01;;;;;;;24.55;7.63;;;23.70;99.90;;;;;;4989920;28;20053;-51
2022/08/18 00:07:11;;;;;;;21.33;8.00;;;23.50;99.90;;;;;;4990362;28;20053;-50
2022/08/18 00:10:15;;;;;;;15.30;7.45;;;23.40;99.90;;;;;;4990039;28;20057;-50
2022/08/18 00:13:38;;;;;;;23.80;8.73;;;23.40;99.90;;;;;;4989625;28;20044;-48
2022/08/18 00:17:00;;;;;;;23.00;7.57;;;23.40;99.90;;;;;;4989626;28;20053;-47
2022/08/18 00:20:24;;;;;;;23.30;8.20;;;23.40;99.90;;;;;;4989964;28;20038;-53
2022/08/18 00:23:31;;;;;;;24.08;8.40;;;23.40;99.90;;;;;;4989787;28;20057;-49
2022/08/18 00:30:19;;;;;;;18.13;8.32;;;23.40;99.90;;;;;;4990343;28;20045;-48
2022/08/18 00:33:24;;;;;;;22.10;8.52;;;23.50;99.90;;;;;;4989556;28;20045;-46
2022/08/18 00:36:47;;;;;;;20.30;8.25;;;23.40;99.90;;;;;;4989882;28;20460;-45
2022/08/18 00:46:57;;;;;;;20.02;7.82;;;23.20;99.90;;;;;;4989557;28;20516;-46
2022/08/18 00:50:41;;;;;;;22.98;8.10;;;23.30;99.90;;;;;;4989355;28;20412;-51
2022/08/18 00:57:17;;;;;;;25.88;8.00;;;23.20;99.90;;;;;;4989494;28;20515;-47
2022/08/18 01:00:22;;;;;;;28.63;9.15;;;23.20;99.90;;;;;;4989561;28;20045;-50
2022/08/18 01:03:27;;;;;;;20.95;7.80;;;23.30;99.90;;;;;;4989103;28;20053;-47
2022/08/18 01:06:53;;;;;;;36.45;8.93;;;23.30;99.90;;;;;;4989816;28;20053;-46
2022/08/18 01:10:18;;;;;;;19.35;7.70;;;23.30;99.90;;;;;;4989458;28;20041;-49
2022/08/18 01:13:59;;;;;;;27.25;8.35;;;23.30;99.90;;;;;;4987377;28;20057;-51
2022/08/18 01:24:06;;;;;;;26.65;8.50;;;23.20;99.90;;;;;;4988887;28;20046;-50
2022/08/18 01:27:13;;;;;;;25.42;8.43;;;23.10;99.90;;;;;;4988939;28;20050;-50
2022/08/18 01:30:18;;;;;;;26.73;8.98;;;23.00;99.90;;;;;;4988671;28;20046;-46
2022/08/18 01:37:21;;;;;;;21.13;8.98;;;22.90;99.90;;;;;;4989007;28;20058;-47
2022/08/18 01:40:45;;;;;;;18.35;8.27;;;23.00;99.90;;;;;;4988972;28;20404;-48
2022/08/18 01:43:49;;;;;;;25.83;9.07;;;23.10;99.90;;;;;;4988205;28;20053;-49
2022/08/18 01:46:52;;;;;;;30.58;9.15;;;22.70;99.90;;;;;;4988903;28;20049;-52
2022/08/18 01:50:55;;;;;;;23.47;9.53;;;22.60;99.90;;;;;;4988615;28;20108;-45
2022/08/18 01:54:18;;;;;;;23.92;9.65;;;22.40;99.90;;;;;;4987341;28;20042;-47
2022/08/18 01:57:23;;;;;;;27.48;9.00;;;22.40;99.90;;;;;;4988778;28;20041;-49
2022/08/18 02:00:28;;;;;;;33.22;9.75;;;22.40;99.90;;;;;;4988309;28;20053;-46
2022/08/18 02:03:58;;;;;;;21.38;9.90;;;22.30;99.90;;;;;;4988134;28;20064;-46
2022/08/18 02:07:06;;;;;;;18.25;10.18;;;22.30;99.90;;;;;;4988568;28;20404;-51
2022/08/18 02:10:10;;;;;;;25.67;9.95;;;22.30;99.90;;;;;;4988360;28;20404;-52
2022/08/18 02:13:14;;;;;;;33.20;11.45;;;22.30;99.90;;;;;;4988551;28;20052;-47
2022/08/18 02:16:37;;;;;;;24.58;9.60;;;22.30;99.90;;;;;;4988490;28;20396;-48
2022/08/18 02:19:46;;;;;;;26.92;9.73;;;22.40;99.90;;;;;;4988219;28;20045;-48
2022/08/18 02:26:32;;;;;;;27.85;9.35;;;22.60;99.90;;;;;;4987790;28;20045;-52
2022/08/18 02:29:36;;;;;;;28.58;8.13;;;22.60;99.90;;;;;;4988091;28;20045;-52
2022/08/18 02:32:40;;;;;;;21.83;6.43;;;22.80;99.90;;;;;;4988102;28;20049;-51
2022/08/18 02:35:53;;;;;;;23.50;7.03;;;22.90;99.90;;;;;;4987460;28;20037;-49
2022/08/18 02:42:38;;;;;;;29.67;7.93;;;23.70;99.90;;;;;;4987844;28;20065;-52
2022/08/18 02:49:42;;;;;;;20.63;7.47;;;23.30;99.90;;;;;;4987560;28;20053;-51
2022/08/18 02:52:46;;;;;;;27.63;8.48;;;23.00;99.90;;;;;;4987707;28;20052;-52
2022/08/18 02:55:50;;;;;;;18.17;8.45;;;22.70;99.90;;;;;;4987669;28;20046;-51
2022/08/18 02:59:05;;;;;;;19.00;8.85;;;22.60;99.90;;;;;;4987612;28;20041;-51
2022/08/18 03:02:10;;;;;;;23.65;9.07;;;22.50;99.90;;;;;;4987543;28;20042;-52
2022/08/18 03:05:15;;;;;;;30.15;10.40;;;22.40;99.90;;;;;;4986759;28;20049;-52
2022/08/18 03:08:19;;;;;;;20.77;9.30;;;22.10;99.90;;;;;;4987503;28;20049;-49
2022/08/18 03:11:25;;;;;;;24.00;9.70;;;22.10;99.90;;;;;;4987503;28;20061;-52
2022/08/18 03:14:29;;;;;;;30.55;11.45;;;22.10;99.90;;;;;;4987268;28;20065;-51
2022/08/18 03:17:36;;;;;;;23.50;9.60;;;22.00;99.90;;;;;;4987155;28;20108;-50
2022/08/18 03:20:42;;;;;;;21.88;9.90;;;22.00;99.90;;;;;;4987598;28;20057;-53
2022/08/18 03:27:28;;;;;;;16.00;8.35;;;22.00;99.90;;;;;;4987152;28;20400;-51
2022/08/18 03:30:51;;;;;;;18.52;9.50;;;22.00;99.90;;;;;;4987405;28;20049;-52
2022/08/18 03:33:57;;;;;;;22.85;9.95;;;21.90;99.90;;;;;;4987353;28;20040;-51
2022/08/18 03:37:01;;;;;;;22.55;9.32;;;22.00;99.90;;;;;;4989883;28;20045;-46
2022/08/18 03:40:24;;;;;;;25.02;8.32;;;22.00;99.90;;;;;;4990849;28;20045;-50
2022/08/18 03:43:30;;;;;;;35.42;10.00;;;22.00;99.90;;;;;;4990439;28;20053;-51
2022/08/18 03:46:34;;;;;;;27.85;9.10;;;22.00;99.90;;;;;;4990395;28;20061;-49
2022/08/18 03:49:38;;;;;;;32.10;10.48;;;22.00;99.90;;;;;;4990546;28;20052;-52
2022/08/18 03:56:14;;;;;;;29.95;9.18;;;22.20;99.90;;;;;;4990291;28;20045;-48
2022/08/18 03:59:22;;;;;;;21.75;8.45;;;22.20;99.90;;;;;;4990783;28;20049;-47
2022/08/18 04:02:45;;;;;;;22.95;9.43;;;22.20;99.90;;;;;;4990663;28;20049;-49
2022/08/18 04:05:48;;;;;;;27.85;9.52;;;22.30;99.90;;;;;;4990933;28;20046;-50
2022/08/18 04:08:59;;;;;;;21.80;8.20;;;22.30;99.90;;;;;;4990184;28;20404;-48
2022/08/18 04:12:10;;;;;;;23.73;9.20;;;22.40;99.90;;;;;;4990546;28;20045;-52
2022/08/18 04:15:14;;;;;;;22.90;8.88;;;22.40;99.90;;;;;;4989875;28;20050;-52
2022/08/18 04:18:18;;;;;;;26.05;8.85;;;22.40;99.90;;;;;;4989708;28;20401;-48
2022/08/18 04:21:23;;;;;;;33.65;9.63;;;22.40;99.90;;;;;;4988907;28;20053;-48
2022/08/18 04:24:28;;;;;;;21.08;8.18;;;22.40;99.90;;;;;;4989523;28;20049;-50
2022/08/18 04:27:33;;;;;;;25.25;8.98;;;22.30;99.90;;;;;;4989729;28;20053;-46
2022/08/18 04:34:21;;;;;;;26.45;8.40;;;22.30;99.90;;;;;;4989741;28;20409;-46
2022/08/18 04:37:44;;;;;;;30.63;8.82;;;22.30;99.90;;;;;;4989671;28;20042;-50
2022/08/18 04:41:07;;;;;;;27.27;8.02;;;22.40;99.90;;;;;;4989823;28;20045;-49
2022/08/18 04:44:11;;;;;;;27.40;8.48;;;22.40;99.90;;;;;;4989723;28;20049;-48
2022/08/18 04:47:15;;;;;;;25.55;9.10;;;22.30;99.90;;;;;;4989331;28;20053;-49
2022/08/18 04:50:19;;;;;;;21.38;7.70;;;22.30;99.90;;;;;;4989740;28;20053;-50
2022/08/18 04:57:13;;;;;;;22.90;8.30;;;22.30;99.90;;;;;;4989601;28;20528;-46
2022/08/18 05:00:36;;;;;;;19.67;7.45;;;22.40;99.90;;;;;;4989940;28;20045;-49
2022/08/18 05:03:40;;;;;;;25.70;8.32;;;22.50;99.90;;;;;;4989784;28;20053;-46
2022/08/18 05:06:45;;;;;;;24.48;7.80;;;22.60;99.90;;;;;;4989846;28;20061;-48
2022/08/18 05:10:08;;;;;;;30.98;8.02;;;22.70;99.90;;;;;;4989436;28;20520;-46
2022/08/18 05:13:15;;;;;;;26.13;7.88;;;22.80;99.90;;;;;;4989449;28;20042;-52
2022/08/18 05:16:38;;;;;;;25.23;7.63;;;23.00;99.90;;;;;;4989307;28;20413;-48
2022/08/18 05:23:25;;;;;;;21.70;6.85;;;23.50;99.90;;;;;;4989013;28;20523;-48
2022/08/18 05:26:48;;;;;;;23.42;7.40;;;23.90;99.90;;;;;;4989017;28;20566;-49
2022/08/18 05:29:52;;;;;;;17.80;6.35;;;24.20;99.90;;;;;;4988442;28;20065;-49
2022/08/18 05:32:57;;;;;;;23.25;6.40;;;24.80;99.90;;;;;;4989110;28;20051;-46
2022/08/18 05:36:21;;;;;;;28.27;6.60;;;25.80;99.90;;;;;;4989015;28;20041;-46
2022/08/18 05:39:54;;;;;;;17.60;5.85;;;26.50;99.90;;;;;;4988498;28;20041;-47
2022/08/18 05:42:59;;;;;;;24.75;7.10;;;26.50;99.90;;;;;;4989179;28;20049;-47
2022/08/18 05:46:06;;;;;;;20.83;6.97;;;26.00;99.90;;;;;;5014805;22;20045;-52
2022/08/18 05:49:13;;;;;;;22.88;7.50;;;25.60;99.90;;;;;;5049678;28;20605;-56
2022/08/18 05:52:47;;;;;;;24.77;7.10;;;25.30;99.90;;;;;;5051393;28;20048;-56
2022/08/18 05:59:54;;;;;;;18.15;6.72;;;25.00;99.90;;;;;;5049650;28;20044;-53
2022/08/18 06:07:57;;;;;;;27.77;7.18;;;25.40;99.90;;;;;;5049963;28;20064;-55
2022/08/18 06:11:20;;;;;;;21.63;7.03;;;25.50;99.90;;;;;;5050573;28;20047;-53
2022/08/18 06:18:06;;;;;;;24.85;7.65;;;25.50;99.90;;;;;;5049943;28;20036;-53
2022/08/18 06:21:47;;;;;;;25.70;6.47;;;26.00;99.90;;;;;;5050248;28;20052;-57
2022/08/18 06:25:09;;;;;;;18.52;5.57;;;26.30;99.90;;;;;;5049861;28;20068;-53
2022/08/18 06:28:34;;;;;;;21.50;6.32;;;26.40;99.90;;;;;;5049515;28;20411;-57
2022/08/18 06:31:51;;;;;;;24.50;7.10;;;27.20;99.90;;;;;;5049977;28;20518;-54
2022/08/18 06:35:17;;;;;;;27.25;5.38;;;28.60;99.90;;;;;;5050243;28;20052;-53
2022/08/18 06:38:51;;;;;;;24.95;5.30;;;29.90;99.90;;;;;;5030125;28;20040;-57
2022/08/18 06:41:55;;;;;;;26.40;6.13;;;31.00;99.90;;;;;;5040713;28;20403;-53
2022/08/18 06:45:24;;;;;;;23.58;6.00;;;30.70;99.90;;;;;;5029981;28;20044;-57
2022/08/18 06:48:53;;;;;;;24.02;5.78;;;30.00;99.90;;;;;;5029979;28;20052;-57
2022/08/18 06:51:58;;;;;;;17.23;5.88;;;29.60;99.90;;;;;;5038794;28;20056;-53
2022/08/18 06:55:12;;;;;;;27.38;5.78;;;29.50;99.90;;;;;;5049728;28;20040;-55
2022/08/18 06:58:16;;;;;;;25.23;5.63;;;29.50;99.90;;;;;;5049582;28;20044;-56
2022/08/18 07:01:23;;;;;;;21.25;5.22;;;30.20;99.90;;;;;;5038926;28;20522;-56
2022/08/18 07:11:32;;;;;;;24.08;5.63;;;29.50;99.90;;;;;;5029359;28;20112;-54
2022/08/18 07:14:50;;;;;;;21.77;6.07;;;28.70;99.90;;;;;;5043234;28;20056;-54
2022/08/18 07:18:04;;;;;;;19.90;5.68;;;28.40;99.90;;;;;;5048325;28;20403;-52
2022/08/18 07:21:08;;;;;;;22.55;5.07;;;28.60;99.90;;;;;;5038673;28;20047;-55
2022/08/18 07:24:37;;;;;;;26.27;5.78;;;29.70;99.90;;;;;;5043853;28;20056;-57
2022/08/18 07:27:54;;;;;;;21.92;5.50;;;31.30;99.90;;;;;;5045574;28;20052;-56
2022/08/18 07:31:17;;;;;;;19.70;5.15;;;31.70;99.90;;;;;;5045852;28;20044;-58
2022/08/18 07:34:35;;;;;;;20.80;5.88;;;32.00;99.90;;;;;;5046955;28;20517;-54
2022/08/18 07:37:52;;;;;;;21.75;4.93;;;31.50;99.90;;;;;;5047989;28;20075;-56
2022/08/18 07:41:02;;;;;;;26.60;6.57;;;30.70;99.90;;;;;;5045408;28;20032;-55
2022/08/18 07:44:42;;;;;;;21.10;6.13;;;30.00;99.90;;;;;;5048752;28;20515;-55
2022/08/18 07:47:57;;;;;;;22.20;5.25;;;29.50;99.90;;;;;;5049316;28;20068;-54
2022/08/18 07:51:42;;;;;;;29.60;6.22;;;28.80;99.90;;;;;;5045183;28;20040;-54
2022/08/18 07:55:14;;;;;;;18.48;5.30;;;28.40;99.90;;;;;;5039213;28;20040;-56
2022/08/18 07:58:47;;;;;;;21.30;5.82;;;28.30;99.90;;;;;;5047194;28;20048;-56
2022/08/18 08:02:29;;;;;;;23.58;6.38;;;28.10;99.90;;;;;;5045514;28;20040;-53
2022/08/18 08:10:07;;;;;;;20.90;4.95;;;27.90;99.90;;;;;;5048649;28;20286;-53
2022/08/18 08:13:52;;;;;;;18.95;4.82;;;28.20;99.90;;;;;;5046829;28;20043;-55
2022/08/18 08:17:31;;;;;;;23.83;5.72;;;28.20;99.90;;;;;;5042643;28;20040;-55
2022/08/18 08:20:43;;;;;;;26.02;5.82;;;27.90;99.90;;;;;;5043976;28;20044;-55
2022/08/18 08:23:57;;;;;;;30.30;5.85;;;27.60;99.90;;;;;;5047977;28;20068;-57
2022/08/18 08:27:10;;;;;;;29.13;6.93;;;27.50;99.90;;;;;;5034118;28;20044;-55
2022/08/18 08:30:18;;;;;;;22.63;5.57;;;27.40;99.90;;;;;;5049514;28;20036;-53
2022/08/18 08:38:08;;;;;;;18.88;5.30;;;26.80;99.90;;;;;;5046779;28;20048;-57
2022/08/18 08:41:36;;;;;;;26.60;6.47;;;26.80;99.90;;;;;;5050576;28;20047;-56
2022/08/18 08:48:27;;;;;;;21.85;7.07;;;26.70;99.90;;;;;;5050728;28;20414;-56
2022/08/18 08:51:56;;;;;;;28.35;6.68;;;26.40;99.90;;;;;;5049766;28;20048;-56
2022/08/18 08:55:25;;;;;;;29.17;7.15;;;26.20;99.90;;;;;;5042938;28;20028;-56
2022/08/18 08:58:57;;;;;;;29.20;6.55;;;26.00;99.90;;;;;;5045673;28;20044;-56
2022/08/18 09:02:52;;;;;;;34.15;6.00;;;25.80;99.90;;;;;;5042750;28;20040;-52
2022/08/18 09:52:20;;;;;;;5.43;1.73;;;18.40;99.90;;;;;;5092791;28;20043;-58
2022/08/18 09:55:24;;;;;;;4.40;1.27;;;18.30;99.90;;;;;;5097879;28;20039;-57
2022/08/18 09:58:49;;;;;;;6.10;1.80;;;18.30;99.90;;;;;;5101073;28;20036;-59
2022/08/18 10:01:52;;;;;;;8.43;1.85;;;18.40;99.90;;;;;;5100776;28;20380;-59
2022/08/18 10:05:17;;;;;;;5.80;1.90;;;18.50;99.90;;;;;;5079135;28;20036;-58
2022/08/18 10:08:46;;;;;;;11.02;2.10;;;18.60;99.90;;;;;;5099342;28;20029;-57
2022/08/18 10:12:02;;;;;;;10.45;2.38;;;18.70;99.90;;;;;;5089337;28;20058;-58
2022/08/18 10:15:22;;;;;;;15.98;2.13;;;18.90;99.90;;;;;;5094848;28;20039;-56
2022/08/18 10:18:39;;;;;;;7.95;1.73;;;19.10;99.90;;;;;;5094175;28;20513;-58
2022/08/18 10:21:58;;;;;;;10.48;2.03;;;19.30;99.90;;;;;;5081056;28;20036;-55
2022/08/18 10:25:03;;;;;;;7.85;1.60;;;19.50;99.90;;;;;;5087989;28;20399;-58
2022/08/18 10:29:02;;;;;;;8.82;1.30;;;19.80;99.90;;;;;;5079580;28;20044;-55
2022/08/18 10:32:07;;;;;;;2.20;0.73;;;20.40;99.90;;;;;;5043716;28;20041;-57
2022/08/18 10:35:36;;;;;;;4.45;1.20;;;20.90;99.90;;;;;;5088143;28;20032;-54
2022/08/18 10:38:43;;;;;;;4.60;1.60;;;21.20;99.90;;;;;;5086927;28;20054;-54
2022/08/18 10:42:20;;;;;;;8.95;2.63;;;20.70;99.90;;;;;;5072447;28;20044;-58
2022/08/18 10:45:30;;;;;;;7.72;1.70;;;20.50;99.90;;;;;;5048765;28;20036;-56
2022/08/18 10:48:34;;;;;;;9.95;2.10;;;20.50;99.90;;;;;;5076383;28;20040;-56
2022/08/18 10:51:54;;;;;;;9.88;1.90;;;20.30;99.90;;;;;;5083789;28;20032;-56
2022/08/18 10:55:01;;;;;;;9.82;2.13;;;20.40;99.90;;;;;;5088760;28;20383;-54
2022/08/18 10:58:29;;;;;;;7.47;1.67;;;20.60;99.90;;;;;;5089511;28;20032;-54
2022/08/18 11:01:39;;;;;;;8.30;2.60;;;20.60;99.90;;;;;;5089634;28;20035;-57
2022/08/18 11:04:46;;;;;;;7.30;1.80;;;21.00;99.90;;;;;;5080484;28;20036;-58
2022/08/18 11:08:00;;;;;;;10.77;2.13;;;21.90;99.90;;;;;;5087222;28;20028;-56
2022/08/18 11:11:09;;;;;;;9.52;2.15;;;22.70;99.90;;;;;;5073260;28;20056;-55
2022/08/18 11:14:27;;;;;;;16.80;1.90;;;22.50;99.90;;;;;;5090533;28;20048;-57
2022/08/18 11:17:42;;;;;;;10.27;2.35;;;22.60;99.90;;;;;;5083217;28;20414;-57
2022/08/18 11:20:46;;;;;;;11.55;2.10;;;21.80;99.90;;;;;;5087147;28;20046;-56
2022/08/18 11:24:08;;;;;;;15.32;2.88;;;21.00;99.90;;;;;;5080415;28;20059;-58
2022/08/18 11:27:20;;;;;;;6.25;2.00;;;20.50;99.90;;;;;;5088689;28;20039;-58
2022/08/18 11:30:35;;;;;;;11.48;2.90;;;20.40;99.90;;;;;;5074221;28;20036;-58
2022/08/18 11:33:40;;;;;;;8.27;2.08;;;20.80;99.90;;;;;;5069661;28;20035;-57
2022/08/18 11:36:58;;;;;;;11.65;2.00;;;21.20;99.90;;;;;;5085349;28;20036;-55
2022/08/18 11:40:05;;;;;;;7.35;1.50;;;21.70;99.90;;;;;;5070673;28;20043;-55
2022/08/18 11:43:09;;;;;;;9.05;1.42;;;22.20;99.90;;;;;;5070864;28;20029;-54
2022/08/18 11:46:27;;;;;;;8.43;1.70;;;22.90;99.90;;;;;;5070772;28;20614;-54
2022/08/18 11:49:32;;;;;;;8.88;1.60;;;24.10;99.90;;;;;;5083173;22;20484;-44
2022/08/18 11:52:52;;;;;;;6.15;1.95;;;23.40;99.90;;;;;;5050630;28;20037;-46
2022/08/18 11:56:16;;;;;;;9.50;2.13;;;23.30;99.90;;;;;;5029741;28;20484;-45
2022/08/18 11:59:31;;;;;;;9.98;2.30;;;23.30;99.90;;;;;;5050364;28;20037;-51
2022/08/18 12:02:35;;;;;;;10.77;2.85;;;23.30;99.90;;;;;;5040834;28;20044;-50
2022/08/18 12:05:52;;;;;;;11.85;2.35;;;24.30;99.90;;;;;;5026509;28;20052;-46
2022/08/18 12:09:01;;;;;;;19.08;2.60;;;25.30;99.90;;;;;;5031082;28;20053;-46
2022/08/18 12:12:14;;;;;;;7.35;2.30;;;25.50;99.90;;;;;;5030884;28;20048;-53
2022/08/18 12:15:18;;;;;;;7.78;2.00;;;26.80;99.90;;;;;;5046769;28;20045;-47
2022/08/18 12:18:22;;;;;;;8.23;2.08;;;28.80;99.90;;;;;;5047600;28;20041;-49
2022/08/18 12:21:26;;;;;;;13.38;2.53;;;29.60;99.90;;;;;;5048383;28;20044;-49
2022/08/18 12:24:31;;;;;;;11.13;2.28;;;29.40;99.90;;;;;;5049524;28;20048;-46
2022/08/18 12:27:35;;;;;;;11.82;2.47;;;30.10;99.90;;;;;;5010100;28;20413;-44
2022/08/18 12:30:39;;;;;;;15.30;3.08;;;31.20;99.90;;;;;;5020000;28;20053;-49
2022/08/18 12:33:44;;;;;;;10.32;2.17;;;31.70;99.90;;;;;;5029619;28;20040;-47
2022/08/18 12:36:50;;;;;;;10.82;2.50;;;31.70;99.90;;;;;;5047063;28;20044;-45
2022/08/18 12:39:56;;;;;;;7.22;2.05;;;31.20;99.90;;;;;;5047413;28;20044;-47
2022/08/18 12:43:01;;;;;;;15.60;2.53;;;31.10;99.90;;;;;;5038911;28;20895;-51
2022/08/18 12:46:05;;;;;;;13.98;2.85;;;30.50;99.90;;;;;;5010234;28;20420;-49
2022/08/18 12:49:18;;;;;;;12.95;3.08;;;30.90;99.90;;;;;;5011213;28;20049;-51
2022/08/18 12:52:22;;;;;;;9.68;2.45;;;30.40;99.90;;;;;;5035527;28;20039;-47
2022/08/18 12:55:28;;;;;;;15.88;2.75;;;31.20;99.90;;;;;;5049409;28;20048;-44
2022/08/18 12:58:32;;;;;;;13.73;2.53;;;32.40;99.90;;;;;;5035232;28;20120;-52
2022/08/18 13:01:38;;;;;;;15.80;3.05;;;33.60;99.90;;;;;;5030743;28;20065;-51
2022/08/18 13:04:43;;;;;;;11.02;2.22;;;34.20;99.60;;;;;;5030552;28;20109;-48
2022/08/18 13:07:47;;;;;;;9.95;2.28;;;34.60;99.70;;;;;;5038419;28;20107;-48
2022/08/18 13:10:51;;;;;;;13.68;2.42;;;35.00;99.00;;;;;;5049076;28;20054;-46
2022/08/18 13:13:55;;;;;;;8.07;2.05;;;34.60;98.50;;;;;;5049232;28;20048;-48
2022/08/18 13:16:59;;;;;;;7.50;1.58;;;33.90;99.60;;;;;;5049396;28;20033;-49
2022/08/18 13:20:07;;;;;;;9.55;2.30;;;34.00;99.50;;;;;;5049151;28;20496;-47
2022/08/18 13:23:12;;;;;;;9.88;2.40;;;33.10;99.90;;;;;;5049526;28;20041;-48
2022/08/18 13:26:31;;;;;;;10.27;2.38;;;33.00;99.90;;;;;;5049796;28;20040;-45
2022/08/18 13:29:35;;;;;;;14.70;2.72;;;32.80;99.60;;;;;;5048870;28;20420;-50
2022/08/18 13:32:39;;;;;;;11.27;2.75;;;32.70;99.90;;;;;;5049195;28;20060;-45
2022/08/18 13:35:45;;;;;;;8.20;2.22;;;33.20;98.50;;;;;;5049196;28;20430;-50
2022/08/18 13:38:52;;;;;;;14.18;2.65;;;33.20;99.90;;;;;;5048951;28;20058;-47
2022/08/18 13:42:00;;;;;;;8.38;2.08;;;33.60;99.30;;;;;;5049236;28;20052;-48
2022/08/18 13:45:04;;;;;;;9.68;2.65;;;34.00;99.60;;;;;;5049124;28;20049;-46
2022/08/18 13:48:09;;;;;;;10.68;2.05;;;32.50;99.90;;;;;;5048635;28;20500;-48
2022/08/18 13:51:21;;;;;;;8.10;2.10;;;33.10;99.90;;;;;;5048676;28;20044;-46
2022/08/18 13:54:28;;;;;;;5.93;1.90;;;33.50;99.90;;;;;;5050790;28;20040;-45
2022/08/18 13:57:32;;;;;;;13.27;2.67;;;33.80;99.80;;;;;;5052723;28;20052;-49
2022/08/18 14:00:36;;;;;;;12.02;2.25;;;33.50;99.90;;;;;;5052466;28;20071;-51
2022/08/18 14:03:40;;;;;;;13.43;2.58;;;33.80;99.90;;;;;;5052437;28;20040;-45
2022/08/18 14:06:45;;;;;;;11.63;2.53;;;33.90;99.80;;;;;;5052614;28;20072;-50
2022/08/18 14:09:50;;;;;;;11.05;2.05;;;34.00;99.40;;;;;;5052106;28;20048;-45
2022/08/18 14:12:59;;;;;;;15.20;2.88;;;33.40;99.60;;;;;;5052380;28;20047;-51
2022/08/18 14:16:03;;;;;;;8.07;2.70;;;32.60;99.90;;;;;;5051893;28;20040;-47
2022/08/18 14:29:15;;;;;;;14.30;3.67;;;31.50;99.90;;;;;;5051704;28;20052;-45
2022/08/18 14:32:21;;;;;;;15.48;4.38;;;31.90;99.90;;;;;;5051890;28;20048;-45
2022/08/18 14:35:25;;;;;;;16.48;3.72;;;31.90;99.90;;;;;;5051895;28;20060;-45
2022/08/18 14:38:29;;;;;;;13.52;2.72;;;30.00;99.90;;;;;;5051769;28;20069;-49
2022/08/18 14:41:34;;;;;;;14.10;2.83;;;30.30;99.90;;;;;;5051628;28;20044;-50
2022/08/18 14:44:38;;;;;;;12.88;3.05;;;31.10;99.90;;;;;;5051865;28;20420;-48
2022/08/18 14:47:42;;;;;;;11.93;2.92;;;30.80;99.90;;;;;;5051902;28;20052;-44
2022/08/18 14:50:49;;;;;;;9.57;2.38;;;30.90;99.90;;;;;;5051824;28;20048;-46
2022/08/18 14:53:53;;;;;;;12.52;3.45;;;31.40;99.90;;;;;;5051750;28;20399;-49
2022/08/18 14:57:00;;;;;;;13.75;2.85;;;31.80;99.90;;;;;;5051879;28;20127;-49
2022/08/18 15:00:10;;;;;;;12.65;2.80;;;31.70;99.90;;;;;;5051079;28;20060;-49
2022/08/18 15:03:14;;;;;;;9.70;2.47;;;31.70;99.90;;;;;;5051614;28;20043;-45
2022/08/18 15:06:18;;;;;;;6.70;1.92;;;31.70;99.90;;;;;;5051356;28;20403;-45
2022/08/18 15:09:22;;;;;;;9.23;2.20;;;31.80;99.90;;;;;;5051166;28;20048;-51
2022/08/18 15:12:27;;;;;;;8.52;1.95;;;31.80;99.90;;;;;;5051042;28;20049;-45
2022/08/18 15:15:32;;;;;;;12.75;2.90;;;31.80;99.90;;;;;;5050773;28;20037;-49
2022/08/18 15:18:36;;;;;;;9.43;2.10;;;31.90;99.90;;;;;;5050999;28;20044;-46
2022/08/18 15:28:27;;;;;;;11.88;2.05;;;32.00;99.90;;;;;;5050691;28;20029;-47
2022/08/18 15:31:33;;;;;;;5.95;2.38;;;31.80;99.90;;;;;;5051019;28;20416;-47
2022/08/18 15:34:37;;;;;;;10.30;2.42;;;31.70;99.90;;;;;;5050920;28;20048;-46
2022/08/18 15:37:43;;;;;;;11.32;2.47;;;31.60;99.90;;;;;;5050997;28;20259;-48
2022/08/18 15:40:53;;;;;;;6.60;2.42;;;31.40;99.90;;;;;;5050711;28;20043;-50
2022/08/18 15:43:57;;;;;;;9.53;2.17;;;31.30;99.90;;;;;;5050075;28;20048;-48
2022/08/18 15:47:03;;;;;;;14.52;3.03;;;30.80;99.90;;;;;;5050656;28;20534;-46
2022/08/18 15:50:08;;;;;;;11.48;2.83;;;30.00;99.90;;;;;;5050530;28;20052;-48
2022/08/18 15:53:14;;;;;;;11.20;2.38;;;29.40;99.90;;;;;;5050100;28;20273;-49
2022/08/18 15:56:21;;;;;;;13.57;2.70;;;29.20;99.90;;;;;;5050462;28;20040;-50
2022/08/18 15:59:26;;;;;;;9.68;2.65;;;29.00;99.90;;;;;;5050297;28;20048;-47
2022/08/18 16:02:30;;;;;;;10.43;2.45;;;28.60;99.90;;;;;;5050230;28;20051;-46
2022/08/18 16:05:39;;;;;;;9.50;2.40;;;28.30;99.90;;;;;;5049776;28;20051;-46
2022/08/18 16:08:43;;;;;;;9.73;2.25;;;28.20;99.90;;;;;;5049883;28;20064;-49
2022/08/18 16:11:48;;;;;;;7.72;2.28;;;27.90;99.90;;;;;;5050478;28;20427;-47
2022/08/18 16:14:52;;;;;;;11.57;2.95;;;27.70;99.90;;;;;;5050183;28;20037;-47
2022/08/18 16:17:56;;;;;;;9.40;2.40;;;27.50;99.90;;;;;;5049690;28;20522;-49
2022/08/18 16:21:09;;;;;;;10.73;2.38;;;27.30;99.90;;;;;;5050476;28;20039;-49
2022/08/18 16:24:13;;;;;;;9.13;2.50;;;27.10;99.90;;;;;;5050281;28;20048;-48
2022/08/18 16:27:18;;;;;;;8.13;2.42;;;27.00;99.90;;;;;;5050203;28;20411;-47
2022/08/18 16:30:25;;;;;;;14.70;2.95;;;26.80;99.90;;;;;;5050531;28;20064;-53
2022/08/18 16:33:30;;;;;;;12.52;2.42;;;26.80;99.90;;;;;;5050111;28;20048;-47
2022/08/18 16:36:37;;;;;;;10.65;2.55;;;26.70;99.90;;;;;;5049647;28;20060;-47
2022/08/18 16:39:43;;;;;;;6.57;1.95;;;26.60;99.90;;;;;;5049982;28;20052;-50
2022/08/18 16:42:55;;;;;;;13.73;3.08;;;26.50;99.90;;;;;;5049761;28;20051;-52
2022/08/18 16:46:01;;;;;;;11.27;2.92;;;26.40;99.90;;;;;;5049996;28;20044;-47
2022/08/18 16:49:06;;;;;;;14.43;3.28;;;26.10;99.90;;;;;;5049087;28;20044;-51
2022/08/18 16:52:12;;;;;;;15.13;4.13;;;26.00;99.90;;;;;;5049633;28;20051;-53
2022/08/18 16:55:16;;;;;;;18.08;2.65;;;25.90;99.90;;;;;;5049381;28;20051;-49
2022/08/18 17:07:58;;;;;;;9.15;2.53;;;25.40;99.90;;;;;;5050229;28;20048;-48
2022/08/18 17:11:05;;;;;;;14.20;2.70;;;25.10;99.90;;;;;;5049633;28;20029;-45
2022/08/18 17:14:30;;;;;;;15.15;3.40;;;24.90;99.90;;;;;;5048625;28;20039;-46
2022/08/18 17:17:34;;;;;;;10.90;3.08;;;24.60;99.90;;;;;;5048788;28;20675;-45
2022/08/18 17:20:38;;;;;;;13.38;3.58;;;24.40;99.90;;;;;;5049275;28;20051;-50
2022/08/18 17:23:42;;;;;;;11.13;3.30;;;24.40;99.90;;;;;;5048988;28;20424;-46
2022/08/18 17:27:02;;;;;;;13.35;3.30;;;24.40;99.90;;;;;;5049460;28;20056;-50
2022/08/18 17:30:16;;;;;;;16.35;3.90;;;24.30;99.90;;;;;;5051845;28;20044;-48
2022/08/18 17:33:28;;;;;;;10.48;3.00;;;24.10;99.90;;;;;;5053137;28;20044;-51
2022/08/18 17:36:43;;;;;;;17.45;3.28;;;24.00;99.90;;;;;;5053346;28;20102;-48
2022/08/18 17:39:52;;;;;;;18.55;4.22;;;23.90;99.90;;;;;;5053245;28;20044;-45
2022/08/18 17:42:58;;;;;;;17.00;4.05;;;23.80;99.90;;;;;;5053393;28;20048;-44
2022/08/18 17:46:15;;;;;;;11.05;2.90;;;23.60;99.90;;;;;;5053043;28;20056;-44
2022/08/18 17:53:05;;;;;;;12.80;3.75;;;23.20;99.90;;;;;;5052843;28;20055;-46
2022/08/18 17:56:23;;;;;;;11.70;3.45;;;23.00;99.90;;;;;;5052753;28;20056;-45
2022/08/18 18:00:04;;;;;;;16.02;4.20;;;22.90;99.90;;;;;;5051993;28;20036;-50
2022/08/18 18:03:15;;;;;;;11.40;3.90;;;22.80;99.90;;;;;;5052348;28;20044;-44
2022/08/18 18:06:36;;;;;;;14.40;3.10;;;22.80;99.90;;;;;;5052743;28;20048;-44
2022/08/18 18:09:40;;;;;;;15.53;4.00;;;22.80;99.90;;;;;;5051529;28;20032;-46
2022/08/18 18:12:44;;;;;;;21.00;3.75;;;22.70;99.90;;;;;;5052495;28;20044;-51
2022/08/18 18:16:22;;;;;;;14.63;4.93;;;22.60;99.90;;;;;;5051825;28;20120;-46
2022/08/18 18:19:48;;;;;;;25.10;5.50;;;22.50;99.90;;;;;;5052332;28;20518;-50
2022/08/18 18:22:52;;;;;;;24.77;6.28;;;22.30;99.90;;;;;;5052791;28;20056;-49
2022/08/18 18:25:57;;;;;;;17.45;5.03;;;21.90;99.90;;;;;;5052555;28;20051;-50
2022/08/18 18:29:40;;;;;;;14.18;4.68;;;21.60;99.90;;;;;;5052454;28;20048;-46
2022/08/18 18:32:54;;;;;;;20.42;4.88;;;21.50;99.90;;;;;;5052291;28;20408;-47
2022/08/18 18:36:17;;;;;;;16.33;4.72;;;21.60;99.90;;;;;;5052264;28;20064;-47
2022/08/18 18:39:24;;;;;;;15.02;5.13;;;21.60;99.90;;;;;;5051390;28;20072;-48
2022/08/18 18:42:32;;;;;;;24.55;5.30;;;21.70;99.90;;;;;;5052213;28;20064;-48
2022/08/18 18:45:36;;;;;;;17.27;5.57;;;21.70;99.90;;;;;;5052006;28;20048;-51
2022/08/18 18:53:09;;;;;;;13.88;4.32;;;21.60;99.90;;;;;;5051999;28;20055;-50
2022/08/18 18:56:18;;;;;;;20.88;5.30;;;21.50;99.90;;;;;;5052080;28;20124;-51
2022/08/18 18:59:44;;;;;;;16.45;4.60;;;21.60;99.90;;;;;;5051365;28;20060;-52
2022/08/18 19:03:09;;;;;;;15.45;5.05;;;21.60;99.90;;;;;;5052216;28;20051;-49
2022/08/18 19:06:28;;;;;;;15.60;4.90;;;21.60;99.90;;;;;;5051541;28;20044;-52
2022/08/18 19:09:50;;;;;;;17.98;4.22;;;21.70;99.90;;;;;;5051078;28;20040;-51
2022/08/18 19:12:57;;;;;;;;;;;21.70;99.90;;;;;;5052020;28;20040;-52
2022/08/18 19:16:13;;;;;;;13.27;4.18;;;21.70;99.90;;;;;;5051009;28;19916;-49